sensor_id;sensor_type;location;lat;lon;timestamp;P1;durP1;ratioP1;P2;durP2;ratioP2
55827;SDS011;41758;51.992;5.890;2024-01-16T00:01:41;8.85;;;3.95;;
55827;SDS011;41758;51.992;5.890;2024-01-16T00:04:07;8.57;;;4.07;;
55827;SDS011;41758;51.992;5.890;2024-01-16T00:06:33;9.07;;;4.10;;
55827;SDS011;41758;51.992;5.890;2024-01-16T00:09:03;11.23;;;3.97;;
55827;SDS011;41758;51.992;5.890;2024-01-16T00:11:30;9.82;;;3.38;;
55827;SDS011;41758;51.992;5.890;2024-01-16T00:13:56;7.22;;;3.55;;
55827;SDS011;41758;51.992;5.890;2024-01-16T00:16:21;7.93;;;3.10;;
55827;SDS011;41758;51.992;5.890;2024-01-16T00:18:47;5.43;;;2.70;;
55827;SDS011;41758;51.992;5.890;2024-01-16T00:21:12;10.40;;;3.35;;
55827;SDS011;41758;51.992;5.890;2024-01-16T00:23:38;7.57;;;2.83;;
55827;SDS011;41758;51.992;5.890;2024-01-16T00:26:04;6.75;;;2.72;;
55827;SDS011;41758;51.992;5.890;2024-01-16T00:28:31;9.43;;;3.10;;
55827;SDS011;41758;51.992;5.890;2024-01-16T00:30:56;7.45;;;2.90;;
55827;SDS011;41758;51.992;5.890;2024-01-16T00:33:22;7.15;;;3.30;;
55827;SDS011;41758;51.992;5.890;2024-01-16T00:35:48;6.90;;;2.47;;
55827;SDS011;41758;51.992;5.890;2024-01-16T00:38:13;6.30;;;2.53;;
55827;SDS011;41758;51.992;5.890;2024-01-16T00:40:39;7.28;;;2.85;;
55827;SDS011;41758;51.992;5.890;2024-01-16T00:43:04;5.60;;;2.60;;
55827;SDS011;41758;51.992;5.890;2024-01-16T00:45:30;5.95;;;2.30;;
55827;SDS011;41758;51.992;5.890;2024-01-16T00:47:56;5.68;;;2.42;;
55827;SDS011;41758;51.992;5.890;2024-01-16T00:50:21;9.73;;;2.72;;
55827;SDS011;41758;51.992;5.890;2024-01-16T00:52:47;7.28;;;2.75;;
55827;SDS011;41758;51.992;5.890;2024-01-16T00:55:13;6.18;;;2.70;;
55827;SDS011;41758;51.992;5.890;2024-01-16T00:57:38;8.65;;;2.45;;
55827;SDS011;41758;51.992;5.890;2024-01-16T01:00:04;8.30;;;2.88;;
55827;SDS011;41758;51.992;5.890;2024-01-16T01:02:31;7.93;;;2.58;;
55827;SDS011;41758;51.992;5.890;2024-01-16T01:04:56;7.57;;;2.97;;
55827;SDS011;41758;51.992;5.890;2024-01-16T01:07:22;8.05;;;2.80;;
55827;SDS011;41758;51.992;5.890;2024-01-16T01:09:47;11.13;;;3.00;;
55827;SDS011;41758;51.992;5.890;2024-01-16T01:12:13;9.23;;;3.25;;
55827;SDS011;41758;51.992;5.890;2024-01-16T01:14:39;10.73;;;3.10;;
55827;SDS011;41758;51.992;5.890;2024-01-16T01:17:04;9.10;;;3.10;;
55827;SDS011;41758;51.992;5.890;2024-01-16T01:19:30;9.60;;;2.75;;
55827;SDS011;41758;51.992;5.890;2024-01-16T01:21:56;8.85;;;3.40;;
55827;SDS011;41758;51.992;5.890;2024-01-16T01:24:21;6.45;;;3.50;;
55827;SDS011;41758;51.992;5.890;2024-01-16T01:26:47;8.18;;;3.45;;
55827;SDS011;41758;51.992;5.890;2024-01-16T01:29:12;10.55;;;3.40;;
55827;SDS011;41758;51.992;5.890;2024-01-16T01:31:38;8.45;;;3.25;;
55827;SDS011;41758;51.992;5.890;2024-01-16T01:34:04;9.00;;;3.40;;
55827;SDS011;41758;51.992;5.890;2024-01-16T01:36:30;9.15;;;3.30;;
55827;SDS011;41758;51.992;5.890;2024-01-16T01:38:55;7.78;;;3.25;;
55827;SDS011;41758;51.992;5.890;2024-01-16T01:41:21;11.68;;;3.60;;
55827;SDS011;41758;51.992;5.890;2024-01-16T01:43:46;6.60;;;3.10;;
55827;SDS011;41758;51.992;5.890;2024-01-16T01:46:19;7.72;;;3.17;;
55827;SDS011;41758;51.992;5.890;2024-01-16T01:48:48;9.82;;;3.05;;
55827;SDS011;41758;51.992;5.890;2024-01-16T01:51:14;8.05;;;3.25;;
55827;SDS011;41758;51.992;5.890;2024-01-16T01:53:43;7.55;;;3.03;;
55827;SDS011;41758;51.992;5.890;2024-01-16T01:56:16;9.00;;;3.50;;
55827;SDS011;41758;51.992;5.890;2024-01-16T01:58:44;9.02;;;3.30;;
55827;SDS011;41758;51.992;5.890;2024-01-16T02:01:11;7.68;;;3.10;;
55827;SDS011;41758;51.992;5.890;2024-01-16T02:03:43;5.43;;;2.80;;
55827;SDS011;41758;51.992;5.890;2024-01-16T02:06:10;8.68;;;3.45;;
55827;SDS011;41758;51.992;5.890;2024-01-16T02:08:36;8.98;;;3.42;;
55827;SDS011;41758;51.992;5.890;2024-01-16T02:11:03;5.75;;;3.08;;
55827;SDS011;41758;51.992;5.890;2024-01-16T02:13:29;7.30;;;3.45;;
55827;SDS011;41758;51.992;5.890;2024-01-16T02:15:54;6.05;;;3.00;;
55827;SDS011;41758;51.992;5.890;2024-01-16T02:18:20;7.75;;;3.30;;
55827;SDS011;41758;51.992;5.890;2024-01-16T02:20:46;9.00;;;3.38;;
55827;SDS011;41758;51.992;5.890;2024-01-16T02:23:13;6.55;;;3.30;;
55827;SDS011;41758;51.992;5.890;2024-01-16T02:25:40;5.93;;;3.20;;
55827;SDS011;41758;51.992;5.890;2024-01-16T02:28:07;5.93;;;3.10;;
55827;SDS011;41758;51.992;5.890;2024-01-16T02:30:32;9.07;;;3.78;;
55827;SDS011;41758;51.992;5.890;2024-01-16T02:32:59;10.35;;;3.95;;
55827;SDS011;41758;51.992;5.890;2024-01-16T02:35:24;10.40;;;3.88;;
55827;SDS011;41758;51.992;5.890;2024-01-16T02:37:50;6.53;;;3.30;;
55827;SDS011;41758;51.992;5.890;2024-01-16T02:40:16;8.38;;;4.10;;
55827;SDS011;41758;51.992;5.890;2024-01-16T02:42:42;12.20;;;5.20;;
55827;SDS011;41758;51.992;5.890;2024-01-16T02:45:08;11.77;;;5.20;;
55827;SDS011;41758;51.992;5.890;2024-01-16T02:47:33;11.70;;;6.03;;
55827;SDS011;41758;51.992;5.890;2024-01-16T02:49:59;11.75;;;5.30;;
55827;SDS011;41758;51.992;5.890;2024-01-16T02:52:25;12.32;;;5.93;;
55827;SDS011;41758;51.992;5.890;2024-01-16T02:54:51;9.98;;;5.93;;
55827;SDS011;41758;51.992;5.890;2024-01-16T02:57:16;10.88;;;6.10;;
55827;SDS011;41758;51.992;5.890;2024-01-16T02:59:45;14.27;;;6.72;;
55827;SDS011;41758;51.992;5.890;2024-01-16T03:02:11;10.32;;;6.22;;
55827;SDS011;41758;51.992;5.890;2024-01-16T03:04:37;12.07;;;6.25;;
55827;SDS011;41758;51.992;5.890;2024-01-16T03:07:03;10.77;;;6.20;;
55827;SDS011;41758;51.992;5.890;2024-01-16T03:09:29;10.10;;;6.72;;
55827;SDS011;41758;51.992;5.890;2024-01-16T03:11:54;11.23;;;6.55;;
55827;SDS011;41758;51.992;5.890;2024-01-16T03:14:20;11.52;;;6.05;;
55827;SDS011;41758;51.992;5.890;2024-01-16T03:16:46;12.10;;;6.28;;
55827;SDS011;41758;51.992;5.890;2024-01-16T03:19:12;12.02;;;5.97;;
55827;SDS011;41758;51.992;5.890;2024-01-16T03:21:38;10.90;;;5.63;;
55827;SDS011;41758;51.992;5.890;2024-01-16T03:24:04;12.00;;;5.80;;
55827;SDS011;41758;51.992;5.890;2024-01-16T03:26:33;8.75;;;5.97;;
55827;SDS011;41758;51.992;5.890;2024-01-16T03:28:58;10.40;;;5.35;;
55827;SDS011;41758;51.992;5.890;2024-01-16T03:31:25;9.02;;;5.40;;
55827;SDS011;41758;51.992;5.890;2024-01-16T03:33:51;6.97;;;4.93;;
55827;SDS011;41758;51.992;5.890;2024-01-16T03:36:16;10.38;;;5.45;;
55827;SDS011;41758;51.992;5.890;2024-01-16T03:38:42;7.43;;;5.18;;
55827;SDS011;41758;51.992;5.890;2024-01-16T03:41:10;9.88;;;5.20;;
55827;SDS011;41758;51.992;5.890;2024-01-16T03:43:36;10.68;;;5.95;;
55827;SDS011;41758;51.992;5.890;2024-01-16T03:46:02;7.80;;;5.53;;
55827;SDS011;41758;51.992;5.890;2024-01-16T03:48:28;8.98;;;6.30;;
55827;SDS011;41758;51.992;5.890;2024-01-16T03:50:54;13.93;;;8.23;;
55827;SDS011;41758;51.992;5.890;2024-01-16T03:53:21;11.55;;;8.30;;
55827;SDS011;41758;51.992;5.890;2024-01-16T03:55:47;11.35;;;7.30;;
55827;SDS011;41758;51.992;5.890;2024-01-16T03:58:13;10.05;;;7.20;;
55827;SDS011;41758;51.992;5.890;2024-01-16T04:00:39;13.55;;;7.72;;
55827;SDS011;41758;51.992;5.890;2024-01-16T04:03:04;16.52;;;9.32;;
55827;SDS011;41758;51.992;5.890;2024-01-16T04:05:32;15.00;;;8.57;;
55827;SDS011;41758;51.992;5.890;2024-01-16T04:07:58;15.85;;;8.73;;
55827;SDS011;41758;51.992;5.890;2024-01-16T04:10:23;17.20;;;8.45;;
55827;SDS011;41758;51.992;5.890;2024-01-16T04:12:49;11.32;;;8.23;;
55827;SDS011;41758;51.992;5.890;2024-01-16T04:15:15;10.82;;;7.68;;
55827;SDS011;41758;51.992;5.890;2024-01-16T04:17:40;10.07;;;7.35;;
55827;SDS011;41758;51.992;5.890;2024-01-16T04:20:06;10.55;;;6.70;;
55827;SDS011;41758;51.992;5.890;2024-01-16T04:22:32;14.85;;;6.93;;
55827;SDS011;41758;51.992;5.890;2024-01-16T04:24:58;9.98;;;6.93;;
55827;SDS011;41758;51.992;5.890;2024-01-16T04:27:24;11.55;;;6.93;;
55827;SDS011;41758;51.992;5.890;2024-01-16T04:29:50;10.27;;;6.93;;
55827;SDS011;41758;51.992;5.890;2024-01-16T04:32:16;9.95;;;6.78;;
55827;SDS011;41758;51.992;5.890;2024-01-16T04:34:41;12.25;;;6.85;;
55827;SDS011;41758;51.992;5.890;2024-01-16T04:37:07;8.48;;;5.82;;
55827;SDS011;41758;51.992;5.890;2024-01-16T04:39:33;9.13;;;5.72;;
55827;SDS011;41758;51.992;5.890;2024-01-16T04:41:59;8.07;;;5.03;;
55827;SDS011;41758;51.992;5.890;2024-01-16T04:44:24;5.72;;;4.57;;
55827;SDS011;41758;51.992;5.890;2024-01-16T04:46:50;8.98;;;5.38;;
55827;SDS011;41758;51.992;5.890;2024-01-16T04:49:16;8.95;;;4.90;;
55827;SDS011;41758;51.992;5.890;2024-01-16T04:51:41;6.85;;;4.68;;
55827;SDS011;41758;51.992;5.890;2024-01-16T04:54:07;9.30;;;5.70;;
55827;SDS011;41758;51.992;5.890;2024-01-16T04:56:32;8.77;;;5.60;;
55827;SDS011;41758;51.992;5.890;2024-01-16T04:58:58;8.63;;;5.72;;
55827;SDS011;41758;51.992;5.890;2024-01-16T05:01:24;9.18;;;6.63;;
55827;SDS011;41758;51.992;5.890;2024-01-16T05:03:50;10.40;;;6.93;;
55827;SDS011;41758;51.992;5.890;2024-01-16T05:06:16;9.35;;;6.35;;
55827;SDS011;41758;51.992;5.890;2024-01-16T05:08:42;12.32;;;7.13;;
55827;SDS011;41758;51.992;5.890;2024-01-16T05:11:08;10.40;;;6.63;;
55827;SDS011;41758;51.992;5.890;2024-01-16T05:13:34;12.50;;;7.50;;
55827;SDS011;41758;51.992;5.890;2024-01-16T05:16:00;10.82;;;6.60;;
55827;SDS011;41758;51.992;5.890;2024-01-16T05:18:26;10.50;;;6.88;;
55827;SDS011;41758;51.992;5.890;2024-01-16T05:20:51;11.73;;;7.30;;
55827;SDS011;41758;51.992;5.890;2024-01-16T05:23:17;11.98;;;8.10;;
55827;SDS011;41758;51.992;5.890;2024-01-16T05:25:43;13.02;;;8.15;;
55827;SDS011;41758;51.992;5.890;2024-01-16T05:28:09;10.88;;;7.82;;
55827;SDS011;41758;51.992;5.890;2024-01-16T05:30:35;17.52;;;9.20;;
55827;SDS011;41758;51.992;5.890;2024-01-16T05:33:01;14.30;;;9.77;;
55827;SDS011;41758;51.992;5.890;2024-01-16T05:35:27;14.57;;;10.00;;
55827;SDS011;41758;51.992;5.890;2024-01-16T05:37:55;17.88;;;10.95;;
55827;SDS011;41758;51.992;5.890;2024-01-16T05:40:22;14.57;;;10.07;;
55827;SDS011;41758;51.992;5.890;2024-01-16T05:42:48;12.77;;;10.10;;
55827;SDS011;41758;51.992;5.890;2024-01-16T05:45:15;15.50;;;9.88;;
55827;SDS011;41758;51.992;5.890;2024-01-16T05:47:41;12.88;;;9.15;;
55827;SDS011;41758;51.992;5.890;2024-01-16T05:50:07;12.57;;;8.55;;
55827;SDS011;41758;51.992;5.890;2024-01-16T05:52:33;11.32;;;7.90;;
55827;SDS011;41758;51.992;5.890;2024-01-16T05:54:59;11.02;;;6.82;;
55827;SDS011;41758;51.992;5.890;2024-01-16T05:57:26;10.30;;;5.97;;
55827;SDS011;41758;51.992;5.890;2024-01-16T05:59:51;9.60;;;5.40;;
55827;SDS011;41758;51.992;5.890;2024-01-16T06:02:17;10.05;;;4.40;;
55827;SDS011;41758;51.992;5.890;2024-01-16T06:04:43;8.95;;;4.32;;
55827;SDS011;41758;51.992;5.890;2024-01-16T06:07:08;8.68;;;3.90;;
55827;SDS011;41758;51.992;5.890;2024-01-16T06:09:40;8.68;;;3.80;;
55827;SDS011;41758;51.992;5.890;2024-01-16T06:12:07;10.63;;;3.70;;
55827;SDS011;41758;51.992;5.890;2024-01-16T06:14:33;7.28;;;3.90;;
55827;SDS011;41758;51.992;5.890;2024-01-16T06:16:59;6.97;;;3.13;;
55827;SDS011;41758;51.992;5.890;2024-01-16T06:19:25;7.55;;;3.53;;
55827;SDS011;41758;51.992;5.890;2024-01-16T06:21:51;8.23;;;3.42;;
55827;SDS011;41758;51.992;5.890;2024-01-16T06:24:17;5.82;;;3.40;;
55827;SDS011;41758;51.992;5.890;2024-01-16T06:26:43;7.22;;;3.33;;
55827;SDS011;41758;51.992;5.890;2024-01-16T06:29:08;8.50;;;3.92;;
55827;SDS011;41758;51.992;5.890;2024-01-16T06:31:34;10.23;;;4.05;;
55827;SDS011;41758;51.992;5.890;2024-01-16T06:34:00;5.55;;;3.33;;
55827;SDS011;41758;51.992;5.890;2024-01-16T06:36:25;9.13;;;4.10;;
55827;SDS011;41758;51.992;5.890;2024-01-16T06:38:51;13.07;;;4.05;;
55827;SDS011;41758;51.992;5.890;2024-01-16T06:41:17;7.05;;;4.00;;
55827;SDS011;41758;51.992;5.890;2024-01-16T06:43:42;10.85;;;4.47;;
55827;SDS011;41758;51.992;5.890;2024-01-16T06:46:08;8.07;;;4.18;;
55827;SDS011;41758;51.992;5.890;2024-01-16T06:48:35;10.80;;;4.55;;
55827;SDS011;41758;51.992;5.890;2024-01-16T06:51:04;8.00;;;4.40;;
55827;SDS011;41758;51.992;5.890;2024-01-16T06:53:30;10.05;;;4.20;;
55827;SDS011;41758;51.992;5.890;2024-01-16T06:55:56;9.77;;;4.78;;
55827;SDS011;41758;51.992;5.890;2024-01-16T06:58:21;8.82;;;4.63;;
55827;SDS011;41758;51.992;5.890;2024-01-16T07:00:47;12.30;;;5.50;;
55827;SDS011;41758;51.992;5.890;2024-01-16T07:03:13;7.75;;;5.20;;
55827;SDS011;41758;51.992;5.890;2024-01-16T07:05:40;10.27;;;5.22;;
55827;SDS011;41758;51.992;5.890;2024-01-16T07:08:08;12.50;;;6.13;;
55827;SDS011;41758;51.992;5.890;2024-01-16T07:10:34;10.48;;;5.78;;
55827;SDS011;41758;51.992;5.890;2024-01-16T07:13:01;13.05;;;6.25;;
55827;SDS011;41758;51.992;5.890;2024-01-16T07:15:27;10.73;;;5.30;;
55827;SDS011;41758;51.992;5.890;2024-01-16T07:17:53;13.98;;;5.63;;
55827;SDS011;41758;51.992;5.890;2024-01-16T07:20:18;10.98;;;6.15;;
55827;SDS011;41758;51.992;5.890;2024-01-16T07:22:44;8.85;;;5.30;;
55827;SDS011;41758;51.992;5.890;2024-01-16T07:25:10;10.98;;;6.10;;
55827;SDS011;41758;51.992;5.890;2024-01-16T07:27:36;13.23;;;5.90;;
55827;SDS011;41758;51.992;5.890;2024-01-16T07:30:05;11.20;;;5.80;;
55827;SDS011;41758;51.992;5.890;2024-01-16T07:32:31;8.13;;;5.53;;
55827;SDS011;41758;51.992;5.890;2024-01-16T07:34:57;8.55;;;5.05;;
55827;SDS011;41758;51.992;5.890;2024-01-16T07:37:23;8.32;;;5.10;;
55827;SDS011;41758;51.992;5.890;2024-01-16T07:39:49;9.55;;;5.75;;
55827;SDS011;41758;51.992;5.890;2024-01-16T07:42:14;10.25;;;5.07;;
55827;SDS011;41758;51.992;5.890;2024-01-16T07:44:40;8.98;;;5.85;;
55827;SDS011;41758;51.992;5.890;2024-01-16T07:47:06;11.25;;;7.03;;
55827;SDS011;41758;51.992;5.890;2024-01-16T07:49:31;15.10;;;8.70;;
55827;SDS011;41758;51.992;5.890;2024-01-16T07:51:57;10.73;;;8.00;;
55827;SDS011;41758;51.992;5.890;2024-01-16T07:54:23;14.27;;;9.02;;
55827;SDS011;41758;51.992;5.890;2024-01-16T07:56:51;18.88;;;12.00;;
55827;SDS011;41758;51.992;5.890;2024-01-16T07:59:16;18.50;;;11.38;;
55827;SDS011;41758;51.992;5.890;2024-01-16T08:01:42;13.63;;;10.13;;
55827;SDS011;41758;51.992;5.890;2024-01-16T08:04:08;18.48;;;11.27;;
55827;SDS011;41758;51.992;5.890;2024-01-16T08:06:34;20.33;;;12.95;;
55827;SDS011;41758;51.992;5.890;2024-01-16T08:08:59;18.38;;;12.48;;
55827;SDS011;41758;51.992;5.890;2024-01-16T08:11:25;17.85;;;12.93;;
55827;SDS011;41758;51.992;5.890;2024-01-16T08:13:51;25.55;;;14.18;;
55827;SDS011;41758;51.992;5.890;2024-01-16T08:16:16;19.25;;;14.48;;
55827;SDS011;41758;51.992;5.890;2024-01-16T08:18:42;25.75;;;15.95;;
55827;SDS011;41758;51.992;5.890;2024-01-16T08:21:08;25.85;;;17.58;;
55827;SDS011;41758;51.992;5.890;2024-01-16T08:23:34;25.23;;;17.00;;
55827;SDS011;41758;51.992;5.890;2024-01-16T08:25:59;23.92;;;16.67;;
55827;SDS011;41758;51.992;5.890;2024-01-16T08:28:26;24.50;;;17.17;;
55827;SDS011;41758;51.992;5.890;2024-01-16T08:30:52;24.02;;;16.98;;
55827;SDS011;41758;51.992;5.890;2024-01-16T08:33:18;22.55;;;16.05;;
55827;SDS011;41758;51.992;5.890;2024-01-16T08:35:44;23.40;;;16.00;;
55827;SDS011;41758;51.992;5.890;2024-01-16T08:38:10;22.58;;;17.50;;
55827;SDS011;41758;51.992;5.890;2024-01-16T08:40:35;21.08;;;15.57;;
55827;SDS011;41758;51.992;5.890;2024-01-16T08:43:01;23.63;;;17.23;;
55827;SDS011;41758;51.992;5.890;2024-01-16T08:45:28;24.35;;;17.67;;
55827;SDS011;41758;51.992;5.890;2024-01-16T08:47:54;24.40;;;16.83;;
55827;SDS011;41758;51.992;5.890;2024-01-16T08:50:20;19.25;;;16.13;;
55827;SDS011;41758;51.992;5.890;2024-01-16T08:52:46;23.98;;;16.45;;
55827;SDS011;41758;51.992;5.890;2024-01-16T08:55:11;22.52;;;15.20;;
55827;SDS011;41758;51.992;5.890;2024-01-16T08:57:37;20.85;;;14.93;;
55827;SDS011;41758;51.992;5.890;2024-01-16T09:00:04;20.80;;;16.20;;
55827;SDS011;41758;51.992;5.890;2024-01-16T09:02:30;21.73;;;15.90;;
55827;SDS011;41758;51.992;5.890;2024-01-16T09:04:56;19.48;;;14.20;;
55827;SDS011;41758;51.992;5.890;2024-01-16T09:07:23;20.65;;;14.38;;
55827;SDS011;41758;51.992;5.890;2024-01-16T09:09:49;18.42;;;13.82;;
55827;SDS011;41758;51.992;5.890;2024-01-16T09:12:15;16.23;;;12.32;;
55827;SDS011;41758;51.992;5.890;2024-01-16T09:14:41;19.02;;;13.52;;
55827;SDS011;41758;51.992;5.890;2024-01-16T09:17:07;19.60;;;12.90;;
55827;SDS011;41758;51.992;5.890;2024-01-16T09:19:33;18.63;;;12.07;;
55827;SDS011;41758;51.992;5.890;2024-01-16T09:21:58;18.40;;;12.75;;
55827;SDS011;41758;51.992;5.890;2024-01-16T09:24:24;14.00;;;10.73;;
55827;SDS011;41758;51.992;5.890;2024-01-16T09:26:50;18.33;;;12.27;;
55827;SDS011;41758;51.992;5.890;2024-01-16T09:29:15;16.83;;;11.07;;
55827;SDS011;41758;51.992;5.890;2024-01-16T09:31:41;14.40;;;11.13;;
55827;SDS011;41758;51.992;5.890;2024-01-16T09:34:07;15.07;;;10.45;;
55827;SDS011;41758;51.992;5.890;2024-01-16T09:36:33;18.45;;;11.30;;
55827;SDS011;41758;51.992;5.890;2024-01-16T09:39:02;20.08;;;11.30;;
55827;SDS011;41758;51.992;5.890;2024-01-16T09:41:33;20.77;;;11.27;;
55827;SDS011;41758;51.992;5.890;2024-01-16T09:43:59;15.60;;;9.73;;
55827;SDS011;41758;51.992;5.890;2024-01-16T09:46:25;16.20;;;9.95;;
55827;SDS011;41758;51.992;5.890;2024-01-16T09:48:53;20.25;;;11.38;;
55827;SDS011;41758;51.992;5.890;2024-01-16T09:51:20;15.40;;;9.90;;
55827;SDS011;41758;51.992;5.890;2024-01-16T09:53:46;15.20;;;10.18;;
55827;SDS011;41758;51.992;5.890;2024-01-16T09:56:14;13.85;;;10.25;;
55827;SDS011;41758;51.992;5.890;2024-01-16T09:58:41;19.05;;;10.75;;
55827;SDS011;41758;51.992;5.890;2024-01-16T10:01:08;17.05;;;10.85;;
55827;SDS011;41758;51.992;5.890;2024-01-16T10:03:34;13.63;;;9.13;;
55827;SDS011;41758;51.992;5.890;2024-01-16T10:06:06;17.92;;;10.35;;
55827;SDS011;41758;51.992;5.890;2024-01-16T10:08:32;13.48;;;10.10;;
55827;SDS011;41758;51.992;5.890;2024-01-16T10:10:59;14.43;;;9.23;;
55827;SDS011;41758;51.992;5.890;2024-01-16T10:13:25;20.20;;;10.52;;
55827;SDS011;41758;51.992;5.890;2024-01-16T10:15:52;15.35;;;9.82;;
55827;SDS011;41758;51.992;5.890;2024-01-16T10:18:23;12.40;;;9.73;;
55827;SDS011;41758;51.992;5.890;2024-01-16T10:20:51;18.70;;;10.43;;
55827;SDS011;41758;51.992;5.890;2024-01-16T10:23:27;15.02;;;9.73;;
55827;SDS011;41758;51.992;5.890;2024-01-16T10:28:36;14.95;;;10.02;;
55827;SDS011;41758;51.992;5.890;2024-01-16T10:31:06;15.15;;;9.80;;
55827;SDS011;41758;51.992;5.890;2024-01-16T10:33:33;14.10;;;9.70;;
55827;SDS011;41758;51.992;5.890;2024-01-16T10:36:08;12.25;;;8.98;;
55827;SDS011;41758;51.992;5.890;2024-01-16T10:38:35;15.82;;;9.82;;
55827;SDS011;41758;51.992;5.890;2024-01-16T10:43:34;14.23;;;9.68;;
55827;SDS011;41758;51.992;5.890;2024-01-16T10:46:16;16.02;;;9.38;;
55827;SDS011;41758;51.992;5.890;2024-01-16T10:48:43;14.05;;;8.63;;
55827;SDS011;41758;51.992;5.890;2024-01-16T10:51:27;14.13;;;9.65;;
55827;SDS011;41758;51.992;5.890;2024-01-16T10:54:04;12.13;;;8.18;;
55827;SDS011;41758;51.992;5.890;2024-01-16T10:56:31;14.07;;;8.20;;
55827;SDS011;41758;51.992;5.890;2024-01-16T10:59:01;12.95;;;8.18;;
55827;SDS011;41758;51.992;5.890;2024-01-16T11:01:37;13.32;;;8.15;;
55827;SDS011;41758;51.992;5.890;2024-01-16T11:04:04;12.57;;;8.50;;
55827;SDS011;41758;51.992;5.890;2024-01-16T11:06:32;14.90;;;8.45;;
55827;SDS011;41758;51.992;5.890;2024-01-16T11:08:59;15.68;;;9.00;;
55827;SDS011;41758;51.992;5.890;2024-01-16T11:11:25;45.78;;;24.30;;
55827;SDS011;41758;51.992;5.890;2024-01-16T11:13:53;32.38;;;19.48;;
55827;SDS011;41758;51.992;5.890;2024-01-16T11:16:21;23.83;;;14.57;;
55827;SDS011;41758;51.992;5.890;2024-01-16T11:18:48;17.48;;;10.60;;
55827;SDS011;41758;51.992;5.890;2024-01-16T11:21:14;13.95;;;8.30;;
55827;SDS011;41758;51.992;5.890;2024-01-16T11:23:41;12.07;;;8.05;;
55827;SDS011;41758;51.992;5.890;2024-01-16T11:28:56;14.93;;;8.35;;
55827;SDS011;41758;51.992;5.890;2024-01-16T11:34:02;12.38;;;8.02;;
55827;SDS011;41758;51.992;5.890;2024-01-16T11:36:43;13.45;;;8.02;;
55827;SDS011;41758;51.992;5.890;2024-01-16T11:39:19;13.07;;;7.93;;
55827;SDS011;41758;51.992;5.890;2024-01-16T11:47:01;14.40;;;9.25;;
55827;SDS011;41758;51.992;5.890;2024-01-16T11:49:27;14.60;;;9.60;;
55827;SDS011;41758;51.992;5.890;2024-01-16T11:51:55;14.15;;;9.40;;
55827;SDS011;41758;51.992;5.890;2024-01-16T11:54:21;14.73;;;8.93;;
55827;SDS011;41758;51.992;5.890;2024-01-16T12:02:34;19.58;;;8.88;;
55827;SDS011;41758;51.992;5.890;2024-01-16T12:05:15;14.27;;;9.13;;
55827;SDS011;41758;51.992;5.890;2024-01-16T12:07:51;15.45;;;9.50;;
55827;SDS011;41758;51.992;5.890;2024-01-16T12:10:19;14.68;;;8.80;;
55827;SDS011;41758;51.992;5.890;2024-01-16T12:12:47;16.77;;;9.63;;
55827;SDS011;41758;51.992;5.890;2024-01-16T12:15:14;11.57;;;8.57;;
55827;SDS011;41758;51.992;5.890;2024-01-16T12:18:00;12.88;;;9.45;;
55827;SDS011;41758;51.992;5.890;2024-01-16T12:20:28;16.83;;;11.02;;
55827;SDS011;41758;51.992;5.890;2024-01-16T12:25:28;15.97;;;9.97;;
55827;SDS011;41758;51.992;5.890;2024-01-16T12:27:56;14.48;;;11.23;;
55827;SDS011;41758;51.992;5.890;2024-01-16T12:30:29;15.95;;;9.55;;
55827;SDS011;41758;51.992;5.890;2024-01-16T12:33:20;15.30;;;10.45;;
55827;SDS011;41758;51.992;5.890;2024-01-16T12:35:47;14.60;;;9.10;;
55827;SDS011;41758;51.992;5.890;2024-01-16T12:38:14;13.13;;;9.15;;
55827;SDS011;41758;51.992;5.890;2024-01-16T12:40:41;15.75;;;10.73;;
55827;SDS011;41758;51.992;5.890;2024-01-16T12:43:12;15.57;;;10.40;;
55827;SDS011;41758;51.992;5.890;2024-01-16T12:45:38;14.98;;;9.20;;
55827;SDS011;41758;51.992;5.890;2024-01-16T12:48:04;17.65;;;10.07;;
55827;SDS011;41758;51.992;5.890;2024-01-16T12:50:32;15.35;;;9.40;;
55827;SDS011;41758;51.992;5.890;2024-01-16T12:53:04;14.88;;;9.35;;
55827;SDS011;41758;51.992;5.890;2024-01-16T12:55:31;11.45;;;8.75;;
55827;SDS011;41758;51.992;5.890;2024-01-16T12:58:13;12.07;;;8.35;;
55827;SDS011;41758;51.992;5.890;2024-01-16T13:00:40;15.38;;;9.70;;
55827;SDS011;41758;51.992;5.890;2024-01-16T13:03:06;14.95;;;8.88;;
55827;SDS011;41758;51.992;5.890;2024-01-16T13:05:32;14.63;;;10.02;;
55827;SDS011;41758;51.992;5.890;2024-01-16T13:08:04;15.18;;;8.95;;
55827;SDS011;41758;51.992;5.890;2024-01-16T13:10:30;13.90;;;10.23;;
55827;SDS011;41758;51.992;5.890;2024-01-16T13:13:18;14.68;;;9.75;;
55827;SDS011;41758;51.992;5.890;2024-01-16T13:15:43;15.98;;;10.30;;
55827;SDS011;41758;51.992;5.890;2024-01-16T13:18:19;16.17;;;10.80;;
55827;SDS011;41758;51.992;5.890;2024-01-16T13:20:50;16.55;;;10.18;;
55827;SDS011;41758;51.992;5.890;2024-01-16T13:23:17;16.25;;;9.70;;
55827;SDS011;41758;51.992;5.890;2024-01-16T13:25:44;13.65;;;8.02;;
55827;SDS011;41758;51.992;5.890;2024-01-16T13:28:12;13.18;;;8.68;;
55827;SDS011;41758;51.992;5.890;2024-01-16T13:30:39;14.27;;;9.00;;
55827;SDS011;41758;51.992;5.890;2024-01-16T13:33:06;15.77;;;8.43;;
55827;SDS011;41758;51.992;5.890;2024-01-16T13:35:33;12.85;;;9.18;;
55827;SDS011;41758;51.992;5.890;2024-01-16T13:38:01;14.32;;;8.52;;
55827;SDS011;41758;51.992;5.890;2024-01-16T13:40:28;14.98;;;8.63;;
55827;SDS011;41758;51.992;5.890;2024-01-16T13:42:54;14.63;;;8.50;;
55827;SDS011;41758;51.992;5.890;2024-01-16T13:45:19;14.90;;;9.18;;
55827;SDS011;41758;51.992;5.890;2024-01-16T13:47:45;15.43;;;8.95;;
55827;SDS011;41758;51.992;5.890;2024-01-16T13:50:11;14.85;;;8.60;;
55827;SDS011;41758;51.992;5.890;2024-01-16T13:52:37;15.50;;;9.02;;
55827;SDS011;41758;51.992;5.890;2024-01-16T13:55:05;16.08;;;8.75;;
55827;SDS011;41758;51.992;5.890;2024-01-16T13:57:31;14.73;;;9.45;;
55827;SDS011;41758;51.992;5.890;2024-01-16T13:59:57;17.65;;;10.52;;
55827;SDS011;41758;51.992;5.890;2024-01-16T14:02:24;14.20;;;9.90;;
55827;SDS011;41758;51.992;5.890;2024-01-16T14:04:49;15.18;;;10.00;;
55827;SDS011;41758;51.992;5.890;2024-01-16T14:07:16;14.32;;;10.07;;
55827;SDS011;41758;51.992;5.890;2024-01-16T14:09:42;13.40;;;9.80;;
55827;SDS011;41758;51.992;5.890;2024-01-16T14:12:08;14.48;;;10.57;;
55827;SDS011;41758;51.992;5.890;2024-01-16T14:14:34;17.30;;;10.90;;
55827;SDS011;41758;51.992;5.890;2024-01-16T14:17:00;13.93;;;10.10;;
55827;SDS011;41758;51.992;5.890;2024-01-16T14:19:27;17.17;;;10.45;;
55827;SDS011;41758;51.992;5.890;2024-01-16T14:21:55;14.20;;;10.55;;
55827;SDS011;41758;51.992;5.890;2024-01-16T14:24:21;16.73;;;8.63;;
55827;SDS011;41758;51.992;5.890;2024-01-16T14:26:47;12.90;;;8.38;;
55827;SDS011;41758;51.992;5.890;2024-01-16T14:29:13;16.35;;;9.13;;
55827;SDS011;41758;51.992;5.890;2024-01-16T14:31:39;13.32;;;9.10;;
55827;SDS011;41758;51.992;5.890;2024-01-16T14:34:11;16.75;;;8.88;;
55827;SDS011;41758;51.992;5.890;2024-01-16T14:36:39;14.20;;;8.60;;
55827;SDS011;41758;51.992;5.890;2024-01-16T14:39:05;16.52;;;9.30;;
55827;SDS011;41758;51.992;5.890;2024-01-16T14:41:34;15.65;;;8.60;;
55827;SDS011;41758;51.992;5.890;2024-01-16T14:44:01;13.23;;;8.60;;
55827;SDS011;41758;51.992;5.890;2024-01-16T14:46:26;14.15;;;9.48;;
55827;SDS011;41758;51.992;5.890;2024-01-16T14:48:52;13.57;;;8.38;;
55827;SDS011;41758;51.992;5.890;2024-01-16T14:51:18;14.38;;;9.23;;
55827;SDS011;41758;51.992;5.890;2024-01-16T14:53:43;13.13;;;8.70;;
55827;SDS011;41758;51.992;5.890;2024-01-16T14:56:10;14.27;;;8.15;;
55827;SDS011;41758;51.992;5.890;2024-01-16T14:58:38;13.88;;;8.60;;